Time;durP1;ratioP1;P1;durP2;ratioP2;P2;SDS_P1;SDS_P2;PMS_P1;PMS_P2;Temp;Humidity;BMP_temperature;BMP_pressure;BME280_temperature;BME280_humidity;BME280_pressure;Samples;Min_cycle;Max_cycle;Signal;HPM_P1;HPM_P2
2023/02/23 00:01:50;;;;;;;20.70;12.57;;;6.50;1.00;;;8.41;100.00;95160.31;4961742;28;20216;-66
2023/02/23 00:04:18;;;;;;;18.67;12.87;;;6.50;1.00;;;8.41;100.00;95160.31;4965828;28;20213;-66
2023/02/23 00:06:45;;;;;;;18.47;12.37;;;6.50;1.00;;;8.42;100.00;95162.72;4964782;28;20209;-66
2023/02/23 00:09:14;;;;;;;18.97;12.97;;;6.50;1.00;;;8.39;100.00;95149.97;4965768;28;20212;-66
2023/02/23 00:11:41;;;;;;;20.83;13.10;;;6.50;1.00;;;8.63;100.00;95161.78;4963329;28;20658;-66
2023/02/23 00:14:08;;;;;;;20.57;14.17;;;6.50;1.00;;;8.35;100.00;95156.03;4959441;28;20224;-66
2023/02/23 00:16:36;;;;;;;24.43;13.37;;;6.50;1.00;;;8.29;100.00;95147.25;4965768;28;20297;-66
2023/02/23 00:19:06;;;;;;;19.60;13.10;;;6.50;1.00;;;8.24;100.00;95146.41;4968138;28;20234;-66
2023/02/23 00:21:34;;;;;;;22.67;13.87;;;6.50;1.00;;;8.24;100.00;95135.78;4964408;28;20213;-66
2023/02/23 00:24:03;;;;;;;20.10;13.13;;;6.50;1.00;;;8.28;100.00;95139.53;4965111;28;20260;-66
2023/02/23 00:26:33;;;;;;;20.70;12.93;;;6.40;1.00;;;8.30;100.00;95140.06;4968494;28;20268;-66
2023/02/23 00:29:01;;;;;;;23.23;13.87;;;6.40;1.00;;;8.31;100.00;95152.28;4963642;28;20220;-66
2023/02/23 00:31:29;;;;;;;19.57;13.23;;;6.50;1.00;;;8.32;100.00;95152.03;4970746;28;20611;-66
2023/02/23 00:34:00;;;;;;;22.13;13.80;;;6.50;1.00;;;8.61;100.00;95155.94;4966436;28;20240;-66
2023/02/23 00:36:29;;;;;;;22.53;14.17;;;6.50;1.00;;;8.76;100.00;95171.97;4963680;28;20225;-66
2023/02/23 00:38:59;;;;;;;19.40;12.73;;;6.40;1.00;;;8.87;100.00;95178.09;4966086;28;20259;-66
2023/02/23 00:41:27;;;;;;;20.43;13.47;;;6.40;1.00;;;8.87;100.00;95178.09;4970379;28;20214;-66
2023/02/23 00:43:56;;;;;;;22.97;14.20;;;6.40;1.00;;;8.87;100.00;95172.78;4963902;28;20213;-66
2023/02/23 00:46:26;;;;;;;21.53;14.03;;;6.40;1.00;;;8.84;100.00;95179.44;4966839;28;20217;-66
2023/02/23 00:48:55;;;;;;;18.93;12.47;;;6.40;1.00;;;8.84;100.00;95176.75;4963397;28;20211;-66
2023/02/23 00:51:26;;;;;;;20.17;13.70;;;6.40;1.00;;;8.88;100.00;95179.72;4969391;28;20698;-66
2023/02/23 00:53:54;;;;;;;21.77;14.10;;;6.40;1.00;;;8.82;100.00;95170.91;4961763;28;20735;-66
2023/02/23 00:56:21;;;;;;;22.27;13.60;;;6.40;1.00;;;8.80;100.00;95177.56;4966721;28;20232;-66
2023/02/23 00:58:48;;;;;;;23.77;14.47;;;6.40;1.00;;;8.90;100.00;95173.09;4964397;28;20216;-66
2023/02/23 01:01:16;;;;;;;23.57;14.13;;;6.40;1.00;;;8.87;100.00;95168.28;4967821;28;20276;-66
2023/02/23 01:03:44;;;;;;;22.97;13.40;;;6.40;1.00;;;8.89;100.00;95166.16;4968211;28;20222;-66
2023/02/23 01:06:14;;;;;;;21.30;13.57;;;6.40;1.00;;;8.99;100.00;95168.06;4969188;28;20572;-66
2023/02/23 01:08:45;;;;;;;20.53;12.77;;;6.40;1.00;;;9.03;100.00;95167.28;4958729;28;20709;-66
2023/02/23 01:11:15;;;;;;;23.27;13.73;;;6.40;1.00;;;8.47;100.00;95176.03;4967425;28;20224;-66
2023/02/23 01:13:46;;;;;;;20.17;12.87;;;6.30;1.00;;;8.29;100.00;95163.19;4965019;28;20201;-66
2023/02/23 01:16:16;;;;;;;24.77;13.43;;;6.40;1.00;;;8.23;100.00;95166.06;4965606;28;20217;-66
2023/02/23 01:18:44;;;;;;;23.93;13.60;;;6.30;1.00;;;8.12;100.00;95149.19;4960603;28;20647;-66
2023/02/23 01:21:16;;;;;;;22.93;13.20;;;6.30;1.00;;;8.18;100.00;95139.44;4964728;28;20627;-66
2023/02/23 01:23:45;;;;;;;20.17;12.77;;;6.30;1.00;;;8.20;100.00;95140.81;4965107;28;20209;-66
2023/02/23 01:26:17;;;;;;;20.70;13.60;;;6.40;1.00;;;8.32;100.00;95138.75;4969567;28;20686;-66
2023/02/23 01:28:48;;;;;;;24.27;13.77;;;6.30;1.00;;;8.34;100.00;95141.16;4966867;28;20271;-66
2023/02/23 01:31:15;;;;;;;23.23;12.83;;;6.30;1.00;;;8.40;100.00;95145.44;4968263;28;20680;-67
2023/02/23 01:33:42;;;;;;;21.07;13.43;;;6.30;1.00;;;8.42;100.00;95148.66;4959952;28;20964;-66
2023/02/23 01:36:09;;;;;;;23.10;13.13;;;6.30;1.00;;;8.18;100.00;95155.38;4965883;28;20237;-66
2023/02/23 01:38:37;;;;;;;18.17;12.97;;;6.30;1.00;;;8.11;100.00;95139.63;4969339;28;20248;-66
2023/02/23 01:41:07;;;;;;;22.47;13.73;;;6.30;1.00;;;8.07;100.00;95143.06;4961664;28;20273;-66
2023/02/23 01:43:35;;;;;;;23.33;13.80;;;6.30;1.00;;;8.21;100.00;95136.28;4967697;28;20256;-66
2023/02/23 01:46:03;;;;;;;21.67;13.33;;;6.40;1.00;;;8.25;100.00;95132.88;4971308;28;20209;-66
2023/02/23 01:48:34;;;;;;;21.50;13.33;;;6.30;1.00;;;8.23;100.00;95137.63;4969957;28;20208;-66
2023/02/23 01:51:05;;;;;;;21.20;12.50;;;6.30;1.00;;;8.28;100.00;95139.53;4968492;28;20213;-66
2023/02/23 01:53:40;;;;;;;19.23;13.37;;;6.30;1.00;;;8.26;100.00;95126.50;4964920;28;20655;-67
2023/02/23 01:56:15;;;;;;;21.73;13.67;;;6.30;1.00;;;8.36;100.00;95133.72;4964638;28;20220;-66
2023/02/23 01:58:46;;;;;;;27.50;13.90;;;6.30;1.00;;;8.36;100.00;95129.22;4960978;28;20200;-66
2023/02/23 02:01:13;;;;;;;25.97;15.43;;;6.30;1.00;;;8.39;100.00;95133.22;4957678;28;20237;-66
2023/02/23 02:03:45;;;;;;;24.33;14.67;;;6.30;1.00;;;8.36;100.00;95131.88;4960545;28;20267;-66
2023/02/23 02:06:16;;;;;;;23.07;14.47;;;6.30;1.00;;;8.39;100.00;95130.56;4961733;28;20713;-66
2023/02/23 02:08:49;;;;;;;22.63;15.13;;;6.30;1.00;;;8.45;100.00;95125.03;4961657;28;20204;-66
2023/02/23 02:11:29;;;;;;;25.73;14.67;;;6.30;1.00;;;8.39;100.00;95125.25;4958784;28;20223;-67
2023/02/23 02:14:01;;;;;;;23.00;14.43;;;6.30;1.00;;;8.30;100.00;95138.22;4961712;28;20298;-66
2023/02/23 02:16:54;;;;;;;23.07;14.57;;;6.30;1.00;;;8.41;100.00;95131.09;4963421;28;20686;-66
2023/02/23 02:19:57;;;;;;;25.13;14.63;;;6.30;1.00;;;8.19;100.00;95131.22;4960889;28;20213;-66
2023/02/23 02:23:14;;;;;;;23.17;14.17;;;6.30;1.00;;;8.09;100.00;95125.81;4962495;28;20278;-66
2023/02/23 02:25:57;;;;;;;21.43;13.77;;;6.30;1.00;;;8.11;100.00;95112.28;4957641;28;20209;-66
2023/02/23 02:28:42;;;;;;;23.27;14.00;;;6.30;1.00;;;7.96;100.00;95107.66;4965252;28;20208;-66
2023/02/23 02:31:42;;;;;;;24.53;13.40;;;6.30;1.00;;;8.12;100.00;95106.72;4969298;28;20212;-66
2023/02/23 02:34:35;;;;;;;21.60;13.40;;;6.30;1.00;;;8.16;100.00;95113.13;4960427;28;20271;-66
2023/02/23 02:37:41;;;;;;;21.00;13.67;;;6.30;1.00;;;8.08;100.00;95116.22;4963720;28;20251;-66
2023/02/23 02:40:15;;;;;;;23.97;13.80;;;6.30;1.00;;;8.04;100.00;95112.50;4960313;28;20217;-66
2023/02/23 02:42:59;;;;;;;20.57;13.30;;;6.30;1.00;;;8.10;100.00;95098.22;4960789;28;20210;-66
2023/02/23 02:45:34;;;;;;;20.07;12.67;;;6.30;1.00;;;8.12;100.00;95095.31;4961868;28;20925;-66
2023/02/23 02:48:14;;;;;;;18.13;12.67;;;6.30;1.00;;;8.19;100.00;95102.00;4968268;28;20224;-66
2023/02/23 02:50:49;;;;;;;22.57;14.07;;;6.40;1.00;;;8.20;100.00;95098.31;4967964;28;20220;-66
2023/02/23 02:53:22;;;;;;;21.57;13.53;;;6.30;1.00;;;8.24;100.00;95107.38;4962256;28;20212;-67
2023/02/23 02:55:51;;;;;;;22.37;13.30;;;6.30;1.00;;;8.27;100.00;95111.38;4965747;28;20232;-66
2023/02/23 02:58:18;;;;;;;21.23;12.63;;;6.40;1.00;;;8.44;100.00;95118.13;4972913;28;20307;-66
2023/02/23 04:17:40;;;;;;;16.50;10.57;;;6.30;1.00;;;8.51;100.00;95108.03;4967639;28;20212;-67
2023/02/23 04:20:11;;;;;;;17.17;11.33;;;6.20;1.00;;;8.76;100.00;95118.78;4967636;28;20220;-67
2023/02/23 04:22:38;;;;;;;17.93;11.20;;;6.20;1.00;;;8.81;100.00;95126.78;4965853;28;20204;-67
2023/02/23 04:25:07;;;;;;;18.23;10.87;;;6.20;1.00;;;8.82;100.00;95131.03;4964298;28;20217;-67
2023/02/23 04:27:34;;;;;;;17.83;10.27;;;6.20;1.00;;;8.83;100.00;95140.59;4966341;28;20208;-67
2023/02/23 04:30:02;;;;;;;16.37;10.20;;;6.20;1.00;;;8.07;100.00;95133.22;4962745;28;20217;-67
2023/02/23 04:32:29;;;;;;;16.63;10.70;;;6.20;1.00;;;7.99;100.00;95130.25;4961701;28;20208;-67
2023/02/23 04:34:57;;;;;;;15.67;10.20;;;6.20;1.00;;;7.90;100.00;95124.63;4963715;28;20272;-67
2023/02/23 04:37:24;;;;;;;14.77;9.00;;;6.20;1.00;;;7.90;100.00;95115.84;4967199;28;20275;-67
2023/02/23 04:39:51;;;;;;;11.70;7.90;;;6.20;1.00;;;7.89;100.00;95107.09;4962166;28;20221;-67
2023/02/23 04:42:18;;;;;;;11.37;6.93;;;6.20;1.00;;;7.91;100.00;95101.53;4966187;28;20738;-67
2023/02/23 04:44:46;;;;;;;8.00;5.50;;;6.20;1.00;;;7.97;100.00;95103.16;4964922;28;20217;-67
2023/02/23 04:47:15;;;;;;;8.20;5.87;;;6.20;1.00;;;7.99;100.00;95109.81;4962412;28;20201;-67
2023/02/23 04:49:43;;;;;;;12.60;6.63;;;6.20;1.00;;;8.00;100.00;95107.94;4960099;28;20216;-67
2023/02/23 04:52:11;;;;;;;10.40;5.27;;;6.20;1.00;;;8.02;100.00;95114.59;4966272;28;20213;-67
2023/02/23 04:54:38;;;;;;;12.27;7.40;;;6.20;1.00;;;7.95;100.00;95114.03;4962800;28;20260;-67
2023/02/23 04:57:06;;;;;;;14.93;9.37;;;6.20;1.00;;;7.93;100.00;95105.53;4965348;28;20221;-67
2023/02/23 04:59:33;;;;;;;16.97;9.33;;;6.20;1.00;;;7.88;100.00;95100.19;4959013;28;20248;-67
2023/02/23 05:01:59;;;;;;;16.17;9.70;;;6.20;1.00;;;7.89;100.00;95098.31;4968313;28;20213;-67
2023/02/23 05:04:26;;;;;;;12.87;8.10;;;6.10;1.00;;;7.88;100.00;95104.69;4968724;28;20254;-65
2023/02/23 05:06:53;;;;;;;12.80;9.30;;;6.10;1.00;;;7.91;100.00;95107.63;4969139;28;20699;-65
2023/02/23 05:09:21;;;;;;;13.27;8.90;;;6.10;1.00;;;7.92;100.00;95108.44;4962892;28;20652;-65
2023/02/23 05:11:48;;;;;;;14.53;9.30;;;6.20;1.00;;;7.92;100.00;95109.22;4957886;28;20261;-65
2023/02/23 05:14:15;;;;;;;13.50;9.00;;;6.10;1.00;;;7.84;100.00;95114.22;4961237;28;20216;-67
2023/02/23 05:16:41;;;;;;;13.17;7.83;;;6.10;1.00;;;7.82;100.00;95103.84;4961269;28;20263;-67
2023/02/23 05:19:08;;;;;;;9.27;5.40;;;6.10;1.00;;;7.87;100.00;95092.47;4963945;28;20216;-65
2023/02/23 05:21:35;;;;;;;7.10;4.77;;;6.10;1.00;;;7.91;100.00;95086.38;4962641;28;20213;-65
2023/02/23 05:24:02;;;;;;;8.60;4.90;;;6.10;1.00;;;7.94;100.00;95082.44;4969483;28;20228;-65
2023/02/23 05:26:30;;;;;;;6.53;4.47;;;6.20;1.00;;;7.97;100.00;95082.72;4961981;28;20274;-66
2023/02/23 05:28:57;;;;;;;6.57;4.60;;;6.20;1.00;;;7.97;100.00;95082.72;4968038;28;20239;-67
2023/02/23 05:31:25;;;;;;;8.20;4.57;;;6.20;1.00;;;8.03;100.00;95084.38;4967521;28;20259;-65
2023/02/23 05:33:52;;;;;;;9.90;5.20;;;6.20;1.00;;;8.04;100.00;95093.13;4969977;28;20220;-65
2023/02/23 05:36:21;;;;;;;8.20;5.13;;;6.20;1.00;;;7.98;100.00;95102.09;4961924;28;20749;-65
2023/02/23 05:38:49;;;;;;;8.73;5.67;;;6.10;1.00;;;7.89;100.00;95103.63;4967648;28;20204;-65
2023/02/23 05:41:19;;;;;;;9.33;6.50;;;6.10;1.00;;;7.93;100.00;95113.50;4963806;28;20220;-65
2023/02/23 05:43:47;;;;;;;12.57;7.10;;;6.10;1.00;;;7.91;100.00;95106.84;4967403;28;20263;-65
2023/02/23 05:46:17;;;;;;;10.73;6.90;;;6.10;1.00;;;7.94;100.00;95111.63;4961150;28;20221;-65
2023/02/23 05:48:44;;;;;;;11.87;7.33;;;6.10;1.00;;;7.97;100.00;95111.91;4963456;28;20208;-65
2023/02/23 05:51:14;;;;;;;10.77;6.97;;;6.10;1.00;;;7.94;100.00;95117.75;4962011;28;20208;-66
2023/02/23 05:53:41;;;;;;;7.97;6.17;;;6.10;1.00;;;7.91;100.00;95120.13;4962306;28;20640;-66
2023/02/23 05:56:12;;;;;;;9.30;5.77;;;6.10;1.00;;;7.89;100.00;95116.91;4958300;28;20801;-65
2023/02/23 05:58:39;;;;;;;8.30;5.00;;;6.10;1.00;;;7.88;100.00;95123.28;4957253;28;20201;-65
2023/02/23 06:01:07;;;;;;;7.50;5.10;;;6.00;1.00;;;7.92;100.00;95114.53;4958284;28;20251;-65
2023/02/23 06:03:34;;;;;;;6.90;4.60;;;6.00;1.00;;;7.92;100.00;95119.84;4962036;28;20227;-65
2023/02/23 06:06:01;;;;;;;7.27;4.93;;;6.00;1.00;;;7.93;100.00;95116.16;4957907;28;20236;-64
2023/02/23 06:08:28;;;;;;;8.37;5.30;;;6.00;1.00;;;7.73;100.00;95117.84;4959974;28;20270;-64
2023/02/23 06:10:54;;;;;;;7.07;5.30;;;6.00;1.00;;;7.77;100.00;95111.75;4960124;28;20224;-65
2023/02/23 06:13:21;;;;;;;8.73;6.03;;;5.90;1.00;;;7.76;100.00;95107.50;4960742;28;20288;-65
2023/02/23 06:15:49;;;;;;;12.37;7.10;;;5.90;1.00;;;7.86;100.00;95112.91;4964672;28;20227;-64
2023/02/23 06:18:17;;;;;;;11.03;7.83;;;5.90;1.00;;;7.88;100.00;95117.97;4963343;28;20208;-65
2023/02/23 06:20:45;;;;;;;13.33;8.27;;;6.00;1.00;;;7.90;100.00;95123.81;4964862;28;20283;-64
2023/02/23 06:23:12;;;;;;;11.63;7.60;;;6.00;1.00;;;7.89;100.00;95128.34;4958895;28;20263;-64
2023/02/23 06:25:39;;;;;;;10.13;6.87;;;6.00;1.00;;;7.92;100.00;95119.84;4963595;28;20920;-64
2023/02/23 06:28:07;;;;;;;9.10;6.20;;;6.00;1.00;;;7.87;100.00;95119.03;4957849;28;20215;-64
2023/02/23 06:30:34;;;;;;;10.33;7.07;;;5.90;1.00;;;7.83;100.00;95123.22;4958524;28;20375;-64
2023/02/23 06:33:02;;;;;;;9.40;6.33;;;5.90;1.00;;;7.77;100.00;95129.56;4969880;28;20931;-64
2023/02/23 06:35:31;;;;;;;11.60;8.00;;;5.90;1.00;;;7.76;100.00;95120.78;4966602;28;20559;-65
2023/02/23 06:37:57;;;;;;;14.93;9.17;;;5.90;1.00;;;7.68;100.00;95113.31;4968885;28;20311;-65
2023/02/23 06:40:24;;;;;;;14.87;9.03;;;5.90;1.00;;;7.69;100.00;95109.59;4967123;28;20212;-65
2023/02/23 06:42:51;;;;;;;15.87;9.37;;;5.90;1.00;;;7.68;100.00;95113.31;4962801;28;20216;-64
2023/02/23 06:45:19;;;;;;;13.77;9.37;;;5.80;1.00;;;7.70;100.00;95121.81;4964425;28;20209;-64
2023/02/23 06:47:46;;;;;;;13.97;9.17;;;5.80;1.00;;;7.77;100.00;95124.25;4962922;28;20209;-64
2023/02/23 06:50:13;;;;;;;13.53;7.77;;;5.90;1.00;;;7.71;100.00;95123.41;4967562;28;20308;-64
2023/02/23 06:52:41;;;;;;;7.80;4.70;;;5.90;1.00;;;7.75;100.00;95121.03;4963451;28;20731;-64
2023/02/23 06:55:09;;;;;;;6.87;4.07;;;5.90;1.00;;;7.81;100.00;95112.84;4967919;28;20212;-64
2023/02/23 06:57:36;;;;;;;7.83;4.47;;;5.90;1.00;;;7.84;100.00;95122.97;4965374;28;20228;-64
2023/02/23 07:00:05;;;;;;;6.57;4.80;;;6.00;1.00;;;7.90;100.00;95119.31;4964809;28;20331;-64
2023/02/23 07:02:32;;;;;;;12.60;5.73;;;6.00;1.00;;;7.95;100.00;95122.00;4969059;28;20216;-64
2023/02/23 07:04:58;;;;;;;6.70;4.83;;;6.10;1.00;;;8.02;100.00;95125.22;4966610;28;20224;-64
2023/02/23 07:07:25;;;;;;;9.73;5.23;;;6.10;1.00;;;7.96;100.00;95128.91;4965994;28;20639;-65
2023/02/23 07:09:53;;;;;;;8.80;5.20;;;6.10;1.00;;;8.01;100.00;95136.13;4966663;28;20882;-65
2023/02/23 07:12:20;;;;;;;6.37;4.20;;;6.10;1.00;;;8.05;100.00;95135.34;4969006;28;20212;-65
2023/02/23 07:14:47;;;;;;;9.17;5.00;;;6.10;1.00;;;8.10;100.00;95140.69;4966067;28;20223;-71
2023/02/23 07:17:14;;;;;;;8.00;4.63;;;6.20;1.00;;;8.14;100.00;95140.97;4965671;28;20750;-78
2023/02/23 07:19:41;;;;;;;7.97;5.17;;;6.20;1.00;;;8.18;100.00;95152.69;4965196;28;20302;-72
2023/02/23 07:22:08;;;;;;;7.20;5.30;;;6.20;1.00;;;8.24;100.00;95152.53;4967785;28;20220;-66
2023/02/23 07:24:34;;;;;;;8.73;5.30;;;6.30;1.00;;;8.31;100.00;95154.94;4967848;28;20216;-65
2023/02/23 07:27:03;;;;;;;6.63;4.57;;;6.30;1.00;;;8.23;100.00;95166.84;4966644;28;20213;-66
2023/02/23 07:29:30;;;;;;;7.30;4.67;;;6.30;1.00;;;8.34;100.00;95157.09;4966905;28;20212;-66
2023/02/23 07:31:56;;;;;;;7.23;4.67;;;6.30;1.00;;;8.38;100.00;95168.81;4969020;28;20272;-66
2023/02/23 07:34:24;;;;;;;9.03;5.13;;;6.40;1.00;;;8.38;100.00;95166.94;4962713;28;20605;-65
2023/02/23 07:36:50;;;;;;;8.07;4.60;;;6.40;1.00;;;8.43;100.00;95176.81;4965313;28;20731;-65
2023/02/23 07:39:17;;;;;;;7.97;5.13;;;6.40;1.00;;;8.59;100.00;95176.66;4963489;28;20209;-65
2023/02/23 07:41:44;;;;;;;9.60;5.10;;;6.50;1.00;;;8.60;100.00;95182.75;4966206;28;20241;-65
2023/02/23 07:44:12;;;;;;;6.93;4.57;;;6.50;1.00;;;8.62;100.00;95185.97;4969833;28;20296;-65
2023/02/23 07:46:40;;;;;;;7.53;4.40;;;6.60;1.00;;;8.73;100.00;95177.00;4966001;28;20206;-65
2023/02/23 07:49:08;;;;;;;6.00;4.40;;;6.70;1.00;;;8.86;100.00;95187.97;4968164;28;20235;-65
2023/02/23 07:51:35;;;;;;;7.57;4.50;;;6.70;1.00;;;8.97;100.00;95194.13;4963381;28;21148;-65
2023/02/23 07:54:04;;;;;;;6.63;3.97;;;6.80;1.00;;;9.00;100.00;95204.25;4965083;28;20210;-65
2023/02/23 07:56:31;;;;;;;5.13;3.73;;;6.80;1.00;;;9.11;100.00;95195.25;4963528;28;20253;-65
2023/02/23 07:58:58;;;;;;;6.93;3.93;;;6.90;1.00;;;9.10;100.00;95204.28;4963518;28;20224;-66
2023/02/23 08:01:26;;;;;;;7.90;4.70;;;6.90;1.00;;;9.16;100.00;95206.72;4957775;28;20218;-65
2023/02/23 08:03:53;;;;;;;9.17;6.20;;;6.90;1.00;;;9.17;100.00;95212.81;4966023;28;20622;-66
2023/02/23 08:06:20;;;;;;;14.90;8.43;;;7.00;1.00;;;9.30;100.00;95212.34;4961305;28;20209;-65
2023/02/23 08:08:47;;;;;;;14.47;9.43;;;7.00;1.00;;;9.29;100.00;95213.44;4964907;28;20213;-65
2023/02/23 08:11:14;;;;;;;12.90;8.80;;;7.00;1.00;;;9.38;100.00;95215.31;4964557;28;20272;-65
2023/02/23 08:13:42;;;;;;;13.00;9.43;;;7.20;1.00;;;9.45;100.00;95220.41;4969870;28;20292;-65
2023/02/23 08:16:11;;;;;;;17.83;11.10;;;7.20;1.00;;;9.54;100.00;95214.28;4961340;28;20218;-65
2023/02/23 08:18:39;;;;;;;19.43;11.77;;;7.20;1.00;;;9.57;100.00;95213.78;4964336;28;20230;-66
2023/02/23 08:21:06;;;;;;;15.47;8.97;;;7.30;1.00;;;9.69;100.00;95216.22;4965538;28;20213;-65
2023/02/23 08:23:34;;;;;;;11.90;8.03;;;7.40;1.00;;;9.71;100.00;95220.22;4965080;28;20570;-65
2023/02/23 08:26:02;;;;;;;13.07;8.23;;;7.40;1.00;;;9.87;100.00;95218.38;4951847;28;20238;-65
2023/02/23 08:28:31;;;;;;;8.60;5.33;;;7.50;1.00;;;9.98;100.00;95219.97;4965153;28;20662;-65
2023/02/23 08:30:58;;;;;;;9.83;5.00;;;7.60;1.00;;;10.03;100.00;95231.44;4964191;28;20212;-65
2023/02/23 08:33:25;;;;;;;7.30;4.77;;;7.60;1.00;;;10.10;100.00;95223.22;4963856;28;20214;-65
2023/02/23 08:35:53;;;;;;;8.47;4.77;;;7.70;1.00;;;10.05;100.00;95225.91;4968755;28;20214;-65
2023/02/23 08:38:20;;;;;;;4.70;3.20;;;7.70;1.00;;;10.18;100.00;95227.25;4955876;28;20231;-65
2023/02/23 08:40:47;;;;;;;4.50;2.90;;;7.80;1.00;;;10.23;100.00;95230.69;4964076;28;20217;-65
2023/02/23 08:43:14;;;;;;;6.30;3.63;;;7.90;1.00;;;10.28;100.00;95223.50;4964840;28;20223;-65
2023/02/23 08:45:41;;;;;;;6.53;3.73;;;8.00;1.00;;;10.29;100.00;95218.97;4964828;28;20239;-65
2023/02/23 08:48:08;;;;;;;6.40;3.57;;;8.00;1.00;;;10.44;100.00;95227.75;4958306;28;20654;-65
2023/02/23 08:50:35;;;;;;;5.63;2.97;;;8.00;1.00;;;10.50;100.00;95226.69;4967912;28;20217;-66
2023/02/23 08:53:04;;;;;;;4.37;3.00;;;8.10;1.00;;;10.60;100.00;95231.25;4966826;28;20272;-65
2023/02/23 08:55:32;;;;;;;5.50;4.40;;;8.20;1.00;;;10.63;100.00;95235.22;4962450;28;20776;-65
2023/02/23 08:57:59;;;;;;;6.33;4.73;;;8.30;1.00;;;10.55;100.00;95224.03;4963508;28;20703;-65
2023/02/23 09:00:26;;;;;;;5.17;3.67;;;8.30;1.00;;;10.71;100.00;95230.16;4966365;28;20268;-65
2023/02/23 09:02:53;;;;;;;6.73;3.70;;;8.40;1.00;;;10.76;100.00;95230.16;4963402;28;20263;-65
2023/02/23 09:05:20;;;;;;;6.23;3.83;;;8.50;1.00;;;10.75;100.00;95231.22;4965411;28;20220;-65
2023/02/23 09:07:48;;;;;;;7.07;4.23;;;8.50;1.00;;;10.84;100.00;95234.91;4958578;28;20211;-65
2023/02/23 09:10:19;;;;;;;5.50;3.83;;;8.60;1.00;;;10.83;100.00;95234.13;4960101;28;20216;-70
2023/02/23 09:12:46;;;;;;;6.67;4.13;;;8.60;1.00;;;10.89;100.00;95234.91;4962667;28;20272;-70
2023/02/23 09:15:13;;;;;;;6.93;3.90;;;8.70;1.00;;;10.90;100.00;95237.31;4964365;28;20734;-65
2023/02/23 09:17:43;;;;;;;6.80;4.20;;;8.70;1.00;;;10.88;100.00;95237.88;4962325;28;20298;-65
2023/02/23 09:20:14;;;;;;;8.80;4.90;;;8.80;1.00;;;10.89;100.00;95233.06;4965282;28;20207;-65
2023/02/23 09:22:44;;;;;;;6.77;4.53;;;8.70;1.00;;;10.93;100.00;95230.63;4966474;28;20247;-66
2023/02/23 09:25:11;;;;;;;9.30;4.50;;;8.70;1.00;;;10.96;100.00;95244.22;4966904;28;20200;-66
2023/02/23 09:27:39;;;;;;;7.10;4.60;;;8.70;1.00;;;10.97;100.00;95239.72;4959770;28;20300;-65
2023/02/23 09:30:07;;;;;;;6.43;4.57;;;8.70;1.00;;;11.00;100.00;95245.28;4963876;28;20263;-65
2023/02/23 09:32:35;;;;;;;6.40;4.67;;;8.70;1.00;;;11.16;100.00;95230.84;4967811;28;20252;-65
2023/02/23 09:35:02;;;;;;;6.53;4.80;;;8.80;1.00;;;11.27;100.00;95236.97;4960411;28;20614;-69
2023/02/23 09:37:29;;;;;;;9.27;4.60;;;9.00;1.00;;;11.42;100.00;95235.00;4960062;28;20322;-64
2023/02/23 09:39:55;;;;;;;9.97;5.17;;;9.10;1.00;;;11.50;100.00;95239.00;4967530;28;20244;-65
2023/02/23 09:42:36;;;;;;;9.53;4.57;;;9.20;1.00;;;11.59;100.00;95240.06;4966951;28;20212;-65
2023/02/23 09:45:17;;;;;;;7.03;4.10;;;9.30;1.00;;;11.54;100.00;95237.38;4965039;28;20216;-65
2023/02/23 09:47:58;;;;;;;9.20;4.40;;;9.30;1.00;;;11.67;100.00;95242.16;4963931;28;20222;-64
2023/02/23 09:50:28;;;;;;;8.53;4.20;;;9.40;1.00;;;11.72;100.00;95242.16;4965758;28;20205;-66
2023/02/23 09:52:58;;;;;;;9.63;3.73;;;9.50;1.00;;;11.79;100.00;95239.97;4960353;28;20213;-65
2023/02/23 09:55:27;;;;;;;10.57;3.60;;;9.50;1.00;;;11.82;100.00;95243.94;4969173;28;20208;-65
2023/02/23 09:57:57;;;;;;;9.67;3.50;;;9.50;1.00;;;11.86;100.00;95242.34;4959969;28;20234;-65
2023/02/23 10:00:27;;;;;;;10.17;3.33;;;9.60;1.00;;;11.70;100.00;95252.28;4963625;28;20233;-65
2023/02/23 10:03:17;;;;;;;7.20;3.30;;;9.60;1.00;;;11.91;100.00;95251.09;4958418;28;20213;-65
2023/02/23 10:05:48;;;;;;;4.70;2.53;;;9.60;1.00;;;11.92;100.00;95252.72;4965847;28;20724;-65
2023/02/23 10:08:48;;;;;;;8.07;3.10;;;9.60;1.00;;;11.85;100.00;95264.78;4959007;28;20706;-65
2023/02/23 10:11:25;;;;;;;6.60;2.43;;;9.70;1.00;;;11.84;100.00;95253.28;4962321;28;20213;-65
2023/02/23 10:14:10;;;;;;;7.73;3.63;;;9.70;1.00;;;11.98;100.00;95262.31;4961260;28;21043;-65
2023/02/23 10:16:55;;;;;;;5.60;2.80;;;9.70;1.00;;;12.18;100.00;95260.28;4962481;28;20714;-65
2023/02/23 10:19:29;;;;;;;5.73;3.90;;;9.70;1.00;;;12.25;100.00;95261.88;4963791;28;20212;-65
2023/02/23 10:22:01;;;;;;;9.73;4.07;;;9.70;1.00;;;12.28;100.00;95259.44;4963107;28;20222;-65
2023/02/23 10:24:35;;;;;;;6.63;3.17;;;9.70;1.00;;;12.33;100.00;95257.53;4962250;28;20223;-65
2023/02/23 10:27:09;;;;;;;8.77;3.60;;;9.80;1.00;;;12.52;100.00;95263.81;4966616;28;20306;-65
2023/02/23 10:29:41;;;;;;;7.40;3.87;;;9.80;1.00;;;12.35;100.00;95257.25;4963008;28;20210;-65
2023/02/23 10:32:21;;;;;;;5.40;2.90;;;9.80;1.00;;;11.69;100.00;95261.38;4963429;28;20220;-65
2023/02/23 10:34:53;;;;;;;8.00;3.97;;;9.80;1.00;;;11.76;100.00;95269.09;4967835;28;20210;-65
2023/02/23 10:37:20;;;;;;;5.23;2.97;;;9.80;1.00;;;12.02;100.00;95259.88;4961899;28;20212;-65
2023/02/23 10:39:48;;;;;;;7.03;3.63;;;9.90;1.00;;;11.90;100.00;95254.84;4962111;28;20210;-65
2023/02/23 10:42:20;;;;;;;6.67;3.87;;;9.90;1.00;;;11.96;100.00;95247.63;4960978;28;20312;-65
2023/02/23 10:44:48;;;;;;;8.10;3.77;;;9.90;1.00;;;12.04;100.00;95255.84;4960782;28;20256;-65
2023/02/23 10:47:21;;;;;;;7.27;3.60;;;10.00;1.00;;;12.15;100.00;95257.38;4960565;28;20223;-68
2023/02/23 10:49:50;;;;;;;8.90;3.80;;;10.00;1.00;;;12.30;100.00;95254.59;4963308;28;20215;-65
2023/02/23 10:52:22;;;;;;;7.70;4.07;;;10.10;1.00;;;12.36;100.00;95255.38;4958558;28;20217;-65
2023/02/23 10:54:51;;;;;;;7.53;3.93;;;10.20;1.00;;;12.64;100.00;95258.09;4958780;28;20209;-65
2023/02/23 10:57:25;;;;;;;6.73;4.10;;;10.40;1.00;;;12.68;100.00;95259.94;4961223;28;20240;-66
2023/02/23 11:00:31;;;;;;;9.87;4.10;;;10.40;1.00;;;12.89;100.00;95257.88;4959961;28;20283;-65
2023/02/23 11:03:02;;;;;;;9.70;3.00;;;10.50;1.00;;;12.49;100.00;95264.34;4958882;28;20219;-66
2023/02/23 11:05:37;;;;;;;8.50;3.47;;;10.50;1.00;;;13.01;100.00;95254.88;4961510;28;20220;-66
2023/02/23 11:08:24;;;;;;;6.67;2.50;;;10.50;1.00;;;12.82;100.00;95259.28;4960913;28;20262;-66
2023/02/23 11:11:05;;;;;;;5.87;2.47;;;10.50;1.00;;;12.73;100.00;95251.84;4964745;28;20742;-67
2023/02/23 11:13:39;;;;;;;4.33;2.63;;;10.50;1.00;;;12.76;100.00;95252.38;4948408;28;20990;-66
2023/02/23 11:16:11;;;;;;;8.40;3.20;;;10.50;1.00;;;12.82;100.00;95252.84;4957430;28;20259;-66
2023/02/23 11:18:42;;;;;;;4.43;2.23;;;10.50;1.00;;;12.99;100.00;95252.47;4965519;28;20233;-66
2023/02/23 11:21:12;;;;;;;6.87;2.53;;;10.60;1.00;;;12.87;100.00;95249.31;4964039;28;20213;-66
2023/02/23 11:23:41;;;;;;;5.60;2.30;;;10.70;1.00;;;13.05;100.00;95247.84;4968083;28;21039;-66
2023/02/23 11:26:29;;;;;;;6.70;2.20;;;10.70;1.00;;;13.22;100.00;95254.34;4964643;28;20686;-66
2023/02/23 11:28:59;;;;;;;3.70;2.43;;;10.80;1.00;;;13.36;100.00;95244.56;4966421;28;20678;-66
2023/02/23 11:31:33;;;;;;;6.47;2.70;;;10.80;1.00;;;13.13;100.00;95242.69;4968028;28;20211;-65
2023/02/23 11:34:06;;;;;;;5.53;2.67;;;10.80;1.00;;;13.00;100.00;95246.03;4968183;28;20671;-66
2023/02/23 11:36:35;;;;;;;7.70;3.40;;;10.80;1.00;;;13.31;100.00;95244.63;4961896;28;20205;-66
2023/02/23 11:39:19;;;;;;;8.27;3.27;;;10.80;1.00;;;13.21;100.00;95235.91;4958185;28;20319;-67
2023/02/23 11:41:46;;;;;;;6.63;3.00;;;10.80;1.00;;;13.12;100.00;95237.63;4968260;28;20235;-65
2023/02/23 11:44:21;;;;;;;5.23;3.23;;;10.90;1.00;;;13.41;100.00;95231.13;4965331;28;20626;-65
2023/02/23 11:46:50;;;;;;;8.10;3.37;;;10.90;1.00;;;13.48;100.00;95228.09;4968947;28;20211;-65
2023/02/23 11:49:24;;;;;;;5.13;3.27;;;10.90;1.00;;;13.53;100.00;95228.03;4969407;28;20211;-65
2023/02/23 11:51:53;;;;;;;5.70;3.17;;;11.00;1.00;;;13.57;100.00;95231.75;4968128;28;20213;-65
2023/02/23 11:54:26;;;;;;;9.40;3.20;;;11.00;1.00;;;12.89;100.00;95225.78;4965477;28;20695;-70
2023/02/23 11:56:56;;;;;;;6.00;2.90;;;11.00;1.00;;;13.10;100.00;95226.38;4965552;28;20214;-66